createdAt,value
2022-09-22T00:13:15.551Z,12.34
2022-09-22T00:29:25.734Z,11.83
2022-09-22T00:32:40.205Z,12.12
2022-09-22T00:35:30.760Z,12.11
2022-09-22T00:38:40.978Z,12.02
2022-09-22T00:41:33.579Z,11.94
2022-09-22T09:00:13.509Z,18.16
2022-09-22T09:49:26.700Z,20.40
2022-09-22T09:52:07.775Z,20.11
2022-09-22T09:55:28.318Z,20.48
2022-09-22T09:58:31.028Z,20.26
2022-09-22T10:01:03.737Z,20.35
2022-09-22T10:03:47.175Z,19.56
2022-09-22T10:06:34.024Z,19.47
2022-09-22T10:09:39.571Z,19.83
2022-09-22T10:12:31.749Z,19.90
2022-09-22T10:15:26.998Z,19.93
2022-09-22T10:18:10.172Z,20.05
2022-09-22T10:20:51.927Z,20.01
2022-09-22T10:23:52.011Z,20.23
2022-09-22T10:26:37.011Z,20.18
2022-09-22T10:29:47.929Z,20.07
2022-09-22T10:32:34.847Z,20.30
2022-09-22T10:35:31.508Z,20.28
2022-09-22T10:38:17.479Z,20.70
2022-09-22T10:41:40.497Z,20.92
2022-09-22T10:45:34.658Z,21.16
2022-09-22T11:33:04.931Z,24.40
2022-09-22T11:35:45.106Z,24.60
2022-09-22T11:38:40.215Z,24.57
2022-09-22T11:41:42.307Z,24.19
2022-09-22T11:44:17.417Z,24.52
2022-09-22T11:47:04.893Z,24.50
2022-09-22T11:49:49.591Z,23.83
2022-09-22T11:52:58.827Z,23.08
2022-09-22T11:55:50.504Z,23.40
2022-09-22T11:58:21.914Z,23.26
2022-09-22T12:00:57.931Z,23.16
2022-09-22T12:03:33.740Z,23.18
2022-09-22T12:06:05.966Z,23.14
2022-09-22T12:08:58.365Z,23.06
2022-09-22T12:11:28.412Z,22.96
2022-09-22T12:13:59.120Z,22.93
2022-09-22T12:16:41.993Z,22.89
2022-09-22T12:19:33.024Z,22.63
2022-09-22T12:22:16.204Z,22.77
2022-09-22T12:24:48.396Z,22.93
2022-09-22T12:27:27.529Z,22.74
2022-09-22T12:30:03.235Z,22.51
2022-09-22T12:32:37.593Z,22.65
2022-09-22T12:35:08.350Z,22.45
2022-09-22T12:37:56.396Z,22.17
2022-09-22T12:41:04.178Z,21.82
2022-09-22T12:43:34.543Z,21.31
2022-09-22T12:46:12.849Z,20.94
2022-09-22T12:48:44.801Z,20.60
2022-09-22T12:51:25.659Z,20.49
2022-09-22T12:54:22.972Z,20.72
2022-09-22T12:56:55.370Z,20.69
2022-09-22T13:00:13.053Z,20.57
2022-09-22T13:02:50.562Z,20.38
2022-09-22T13:05:25.635Z,20.44
2022-09-22T13:07:56.387Z,20.52
2022-09-22T13:10:23.985Z,20.13
2022-09-22T13:13:06.902Z,20.02
2022-09-22T13:15:50.225Z,20.45
2022-09-22T13:18:45.602Z,20.16
2022-09-22T13:21:14.434Z,19.77
2022-09-22T13:23:53.857Z,19.89
2022-09-22T13:26:40.768Z,20.23
2022-09-22T13:29:17.407Z,20.46
2022-09-22T13:31:54.520Z,20.60
2022-09-22T13:34:27.558Z,20.61
2022-09-22T13:37:01.658Z,20.34
2022-09-22T13:39:36.008Z,20.52
2022-09-22T13:42:12.738Z,20.45
2022-09-22T13:44:44.835Z,20.07
2022-09-22T13:47:20.781Z,20.28
2022-09-22T13:49:57.639Z,20.18
2022-09-22T13:52:30.447Z,20.47
2022-09-22T13:55:14.271Z,20.47
2022-09-22T13:57:42.865Z,20.78
2022-09-22T14:00:24.705Z,21.04
2022-09-22T14:02:58.598Z,21.17
2022-09-22T14:05:34.323Z,20.99
2022-09-22T14:08:14.395Z,20.63
2022-09-22T14:10:52.704Z,20.84
2022-09-22T14:13:53.591Z,19.79
2022-09-22T14:16:40.480Z,20.63
2022-09-22T14:19:17.161Z,20.63
2022-09-22T14:22:16.488Z,21.21
2022-09-22T14:24:49.750Z,20.39
2022-09-22T14:27:48.875Z,20.57
2022-09-22T14:30:20.567Z,20.81
2022-09-22T14:33:02.350Z,20.63
2022-09-22T14:35:59.883Z,20.60
2022-09-22T14:39:04.620Z,21.06
2022-09-22T14:41:37.799Z,20.52
2022-09-22T14:44:35.490Z,20.53
2022-09-22T14:47:40.884Z,19.99
2022-09-22T14:50:28.486Z,20.24
2022-09-22T14:53:44.018Z,20.03
2022-09-22T14:56:16.049Z,20.30
2022-09-22T14:58:51.018Z,20.24
2022-09-22T15:01:41.307Z,19.26
2022-09-22T15:04:25.175Z,19.49
2022-09-22T15:06:56.625Z,19.56
2022-09-22T15:09:36.209Z,19.55
2022-09-22T15:12:05.294Z,19.56
2022-09-22T15:14:43.845Z,19.73
2022-09-22T15:18:11.927Z,19.41
2022-09-22T15:20:59.643Z,20.23
2022-09-22T15:23:48.328Z,20.17
2022-09-22T15:26:38.786Z,19.73
2022-09-22T16:07:46.333Z,18.04
2022-09-22T16:10:36.029Z,17.98
2022-09-22T16:13:24.796Z,17.36
2022-09-22T16:16:19.409Z,17.08
2022-09-22T16:19:09.404Z,16.99
2022-09-22T16:22:08.039Z,16.65
2022-09-22T16:24:56.310Z,16.47
2022-09-22T16:28:04.895Z,16.97
2022-09-22T16:31:04.323Z,16.92
2022-09-22T16:34:12.647Z,17.05
2022-09-22T16:37:00.429Z,16.83
2022-09-22T16:40:09.356Z,17.01
2022-09-22T16:42:57.437Z,16.90
2022-09-22T16:46:10.874Z,16.68
2022-09-22T16:49:08.368Z,16.71
2022-09-22T18:46:52.618Z,13.92
2022-09-22T18:49:40.838Z,14.15
2022-09-22T19:48:27.105Z,12.81
2022-09-22T19:51:15.712Z,12.60
2022-09-22T19:54:03.750Z,12.49
2022-09-22T19:56:52.838Z,12.51
2022-09-22T19:59:40.650Z,12.33
2022-09-22T20:02:33.574Z,12.72
2022-09-22T20:05:41.945Z,12.78
2022-09-22T20:08:15.702Z,13.45
2022-09-22T20:11:26.831Z,12.93
2022-09-22T20:14:22.599Z,13.25
2022-09-22T20:17:33.072Z,13.00
2022-09-22T20:20:26.638Z,12.89
2022-09-22T20:23:22.332Z,12.92
2022-09-22T20:26:32.915Z,12.89
2022-09-22T20:29:03.651Z,13.20
2022-09-22T20:32:12.217Z,13.14
2022-09-22T20:35:01.815Z,12.88
2022-09-22T20:38:03.645Z,12.93
2022-09-22T20:40:51.795Z,13.02
2022-09-22T20:44:00.116Z,13.38
2022-09-22T20:46:48.172Z,13.28
2022-09-22T20:49:36.684Z,13.22
2022-09-22T20:52:24.548Z,13.28
2022-09-22T20:55:32.744Z,13.67
2022-09-22T20:58:20.898Z,13.25
2022-09-22T21:01:28.992Z,13.06
2022-09-22T21:04:16.486Z,12.91
2022-09-22T21:07:24.743Z,12.30
2022-09-22T21:10:30.817Z,12.04
2022-09-22T21:13:00.587Z,11.91
2022-09-22T21:15:30.086Z,12.45
2022-09-22T21:17:59.064Z,12.60
2022-09-22T21:20:49.415Z,12.85
2022-09-22T21:23:36.948Z,12.63
2022-09-22T21:26:45.357Z,12.60
2022-09-22T21:29:32.887Z,12.30
2022-09-22T21:32:41.171Z,12.33
2022-09-22T21:35:16.809Z,12.27
2022-09-22T21:38:12.628Z,12.32
2022-09-22T21:40:48.115Z,12.53
2022-09-22T21:43:38.239Z,12.74
2022-09-22T21:46:29.713Z,12.40
2022-09-22T21:49:38.613Z,12.59
2022-09-22T21:52:26.472Z,12.32
2022-09-22T21:55:34.908Z,12.24
2022-09-22T21:58:22.863Z,12.49
2022-09-22T22:01:34.135Z,12.56
2022-09-22T22:04:15.207Z,12.69
2022-09-22T22:07:05.029Z,12.18
2022-09-22T22:09:55.313Z,12.24
2022-09-22T22:12:45.847Z,12.31
2022-09-22T22:16:01.994Z,12.32
2022-09-22T22:18:53.456Z,12.25
2022-09-22T22:21:45.277Z,12.01
2022-09-22T22:24:42.003Z,12.09
2022-09-22T22:27:17.494Z,12.46
2022-09-22T22:29:47.260Z,12.13
2022-09-22T22:33:01.275Z,11.80
2022-09-22T22:35:52.318Z,11.81
2022-09-22T22:39:03.526Z,11.38
2022-09-22T22:41:55.783Z,11.34
2022-09-22T22:44:57.601Z,11.76
2022-09-22T22:47:32.757Z,11.30
2022-09-22T22:50:23.136Z,11.40
2022-09-22T22:53:22.507Z,11.31
2022-09-22T22:55:56.238Z,11.35
2022-09-22T22:58:52.626Z,11.07
2022-09-22T23:01:44.583Z,11.26
2022-09-22T23:05:00.147Z,11.06
2022-09-22T23:08:10.898Z,11.14
2022-09-22T23:11:23.993Z,11.26
2022-09-22T23:14:16.687Z,11.00
2022-09-22T23:17:28.009Z,10.91
2022-09-22T23:20:17.441Z,11.03
2022-09-22T23:23:26.920Z,11.35
2022-09-22T23:26:18.176Z,10.93
2022-09-22T23:29:10.863Z,10.50
2022-09-22T23:32:00.626Z,10.57
2022-09-22T23:34:51.385Z,10.66
2022-09-22T23:37:43.744Z,10.30
2022-09-22T23:40:46.666Z,10.28
2022-09-22T23:43:47.438Z,10.60
2022-09-22T23:46:45.135Z,10.62
2022-09-22T23:49:34.687Z,10.41
2022-09-22T23:52:48.264Z,10.17
2022-09-22T23:55:27.806Z,10.27
2022-09-22T23:58:22.992Z,10.19
